Airfield :
LOGIN :

Register | Disclaimer

   EN    FR    IT 

 










Legend :    VFR   Marginal VFR   IFR   Intensive IFR   Very Intensive IFR
Visi :
Ceiling :
>= 8 km
>= 3000ft
5 to 8 km
1000 to 3000 ft
1500m to 5 km
500 to 1000 ft
800 to 1500m
200 to 500 ft
< 800m
< 200 ft
Symbols :   Thunderstorms  Fog  Heavy snow  Heavy precipitations  Wind > 20 kt
SIGMETs :     Misc.  Thunderstorms  Icing  Turbulence  Mountain Waves  Volcanic Ashes






- Airport Elevation : 32 ft
- IATA code : LKZ


EGUL - RAF Lakenheath

CURRENT METAR :
  • 190856Z AUTO 21011KT 9999 FEW016 11/08 A2947 RMK AO2 SLP983 T01140083 52011 $

EXPIRED METARs :
  • 190756Z AUTO 19007KT 9999 CLR 10/08 A2946 RMK AO2 SLP979 T00990080 $
  • 190656Z AUTO 18006KT 9999 CLR 09/07 A2945 RMK AO2 SLP976 T00900074 $

TAF AMD TAF EGUL
Valid from the 19 at 02:00 until the 20 at 03:00 UTC


190238Z 1902/2003 19009KT 9999 SCT040 QNH2946INS
BECMG 1905/1906 20007KT 9000 BR BKN015 QNH2946INS
BECMG 1909/1910 23012G20KT 9999 NSW SCT020 BKN030 QNH2949INS
TEMPO 1915/1918 9000 -SHRA
BECMG 1917/1918 23009KT 9999 SCT020 BKN030 QNH2957INS
BECMG 1922/1923 30009KT 9999 FEW005 BKN010 QNH2964INS TX14/1914Z TN07/1906Z LAST NO AMDS AFT 1903 NEXT 1910



MET'MAP, your aeronautical weather chart ! - Copyright ORBIFLY December 2007 - Disclaimer

ORBIFLY MET'MAP TEAM :

Programming & Development : Alexandra Zaïnal
Concept & Development : Baudouin d'Aumeries
Co-Development & Prog : Marc-Olivier Méhu
Technical & hardware support : Manuel Goepfert

Contact : metmap@orbifly.com




SOURCES & CREDITS :

   NOAA